createdAt,value
2019-01-22T00:01:03.200Z,-2.60
2019-01-22T00:05:11.494Z,-2.60
2019-01-22T00:09:19.773Z,-2.60
2019-01-22T00:13:28.062Z,-2.60
2019-01-22T00:17:36.325Z,-2.70
2019-01-22T00:21:44.591Z,-2.70
2019-01-22T00:25:52.857Z,-2.70
2019-01-22T00:30:09.456Z,-2.70
2019-01-22T00:34:17.733Z,-2.70
2019-01-22T00:38:25.993Z,-2.60
2019-01-22T00:42:34.314Z,-2.70
2019-01-22T00:46:42.601Z,-2.70
2019-01-22T00:50:50.927Z,-2.70
2019-01-22T00:54:59.184Z,-2.70
2019-01-22T00:59:07.494Z,-2.80
2019-01-22T01:03:15.774Z,-2.70
2019-01-22T01:07:24.041Z,-2.80
2019-01-22T01:11:33.118Z,-2.80
2019-01-22T01:15:41.393Z,-2.80
2019-01-22T01:19:49.718Z,-2.80
2019-01-22T01:23:57.990Z,-2.70
2019-01-22T01:28:06.246Z,-2.70
2019-01-22T01:32:14.532Z,-2.70
2019-01-22T01:36:22.839Z,-2.60
2019-01-22T01:40:31.090Z,-2.60
2019-01-22T01:44:39.364Z,-2.60
2019-01-22T01:48:47.630Z,-2.60
2019-01-22T01:52:55.928Z,-2.70
2019-01-22T01:57:04.171Z,-2.70
2019-01-22T02:01:12.437Z,-2.70
2019-01-22T02:05:20.734Z,-2.70
2019-01-22T02:09:28.976Z,-2.60
2019-01-22T02:13:41.949Z,-2.60
2019-01-22T02:18:05.583Z,-2.60
2019-01-22T02:22:29.523Z,-2.60
2019-01-22T02:27:08.490Z,-2.60
2019-01-22T02:31:27.703Z,-2.60
2019-01-22T02:35:48.297Z,-2.70
2019-01-22T02:40:06.592Z,-2.80
2019-01-22T02:44:44.197Z,-2.80
2019-01-22T02:50:21.116Z,-2.80
2019-01-22T02:54:41.998Z,-2.80
2019-01-22T02:59:07.920Z,-2.90
2019-01-22T03:03:35.998Z,-2.80
2019-01-22T03:07:54.044Z,-2.80
2019-01-22T03:12:18.366Z,-2.80
2019-01-22T03:16:55.560Z,-2.80
2019-01-22T03:21:25.478Z,-2.80
2019-01-22T03:25:51.915Z,-2.80
2019-01-22T03:32:47.304Z,-2.80
2019-01-22T03:37:08.919Z,-2.90
2019-01-22T03:42:02.476Z,-2.90
2019-01-22T03:46:25.087Z,-2.90
2019-01-22T03:51:15.710Z,-2.80
2019-01-22T03:55:47.033Z,-2.90
2019-01-22T03:59:55.402Z,-2.90
2019-01-22T04:04:03.886Z,-2.90
2019-01-22T04:08:12.147Z,-2.90
2019-01-22T04:12:20.443Z,-2.90
2019-01-22T04:16:28.769Z,-2.90
2019-01-22T04:20:38.881Z,-2.90
2019-01-22T04:24:53.650Z,-2.90
2019-01-22T04:29:15.985Z,-2.90
2019-01-22T04:34:33.939Z,-2.90
2019-01-22T04:38:58.262Z,-2.90
2019-01-22T04:44:38.049Z,-2.90
2019-01-22T04:48:59.476Z,-2.90
2019-01-22T04:53:50.715Z,-2.90
2019-01-22T04:58:09.101Z,-2.80
2019-01-22T05:02:36.018Z,-2.90
2019-01-22T05:09:59.464Z,-2.80
2019-01-22T05:16:21.605Z,-2.80
2019-01-22T05:21:14.055Z,-2.90
2019-01-22T05:25:47.149Z,-2.90
2019-01-22T05:32:09.814Z,-2.90
2019-01-22T05:36:34.427Z,-2.80
2019-01-22T05:41:41.297Z,-2.80
2019-01-22T05:46:39.695Z,-2.80
2019-01-22T05:51:07.318Z,-2.80
2019-01-22T05:55:22.564Z,-2.80
2019-01-22T05:59:57.736Z,-2.80
2019-01-22T06:06:18.524Z,-2.90
2019-01-22T06:11:51.117Z,-2.80
2019-01-22T06:17:08.600Z,-2.90
2019-01-22T06:21:26.478Z,-2.90
2019-01-22T06:27:47.768Z,-2.90
2019-01-22T06:32:05.693Z,-2.90
2019-01-22T06:37:16.122Z,-2.90
2019-01-22T06:42:37.426Z,-2.80
2019-01-22T06:46:54.955Z,-2.80
2019-01-22T06:52:10.464Z,-2.80
2019-01-22T06:56:32.862Z,-2.80
2019-01-22T07:01:08.563Z,-2.80
2019-01-22T07:05:35.860Z,-2.80
2019-01-22T07:10:29.600Z,-2.80
2019-01-22T07:16:51.802Z,-2.70
2019-01-22T07:21:16.287Z,-2.70
2019-01-22T07:26:46.473Z,-2.70
2019-01-22T07:31:10.969Z,-2.70
2019-01-22T07:35:29.415Z,-2.70
2019-01-22T07:41:54.536Z,-2.70
2019-01-22T07:47:14.846Z,-2.70
2019-01-22T07:51:32.475Z,-2.60
2019-01-22T07:55:50.903Z,-2.60
2019-01-22T08:00:12.740Z,-2.60
2019-01-22T08:04:43.183Z,-2.60
2019-01-22T08:11:07.090Z,-2.60
2019-01-22T08:15:25.558Z,-2.50
2019-01-22T08:19:54.422Z,-2.50
2019-01-22T08:26:49.722Z,-2.40
2019-01-22T08:31:08.386Z,-2.40
2019-01-22T08:36:32.233Z,-2.30
2019-01-22T08:40:51.058Z,-2.20
2019-01-22T08:45:14.828Z,-2.20
2019-01-22T08:49:46.000Z,-2.20
2019-01-22T08:55:09.325Z,-2.10
2019-01-22T08:59:33.538Z,-2.00
2019-01-22T09:03:56.901Z,-2.00
2019-01-22T09:08:14.194Z,-1.90
2019-01-22T09:12:51.463Z,-1.90
2019-01-22T09:18:16.006Z,-1.80
2019-01-22T09:24:37.592Z,-1.80
2019-01-22T09:29:03.963Z,-1.70
2019-01-22T09:33:22.645Z,-1.60
2019-01-22T09:37:44.634Z,-1.60
2019-01-22T09:41:52.980Z,-1.50
2019-01-22T09:46:01.358Z,-1.40
2019-01-22T09:50:09.681Z,-1.40
2019-01-22T09:54:17.955Z,-1.30
2019-01-22T09:58:26.206Z,-1.20
2019-01-22T10:02:34.526Z,-1.20
2019-01-22T10:06:42.832Z,-1.10
2019-01-22T10:10:51.111Z,-1.00
2019-01-22T10:14:59.427Z,-1.00
2019-01-22T10:19:07.841Z,-0.90
2019-01-22T10:23:16.161Z,-0.90
2019-01-22T10:27:24.474Z,-0.80
2019-01-22T10:31:32.807Z,-0.80
2019-01-22T10:35:41.121Z,-0.80
2019-01-22T10:39:49.465Z,-0.70
2019-01-22T10:43:57.803Z,-0.50
2019-01-22T10:48:06.224Z,-0.50
2019-01-22T10:52:14.498Z,-0.50
2019-01-22T10:56:22.855Z,-0.50
2019-01-22T11:00:31.661Z,-0.50
2019-01-22T11:04:39.954Z,-0.40
2019-01-22T11:08:48.250Z,-0.40
2019-01-22T11:12:56.585Z,-0.30
2019-01-22T11:17:04.935Z,-0.30
2019-01-22T11:21:13.198Z,-0.20
2019-01-22T11:25:21.756Z,-0.20
2019-01-22T11:29:30.074Z,-0.20
2019-01-22T11:33:38.376Z,-0.10
2019-01-22T11:37:46.694Z,-0.20
2019-01-22T11:41:55.057Z,-0.10
2019-01-22T11:46:03.370Z,-0.10
2019-01-22T11:50:14.193Z,-0.10
2019-01-22T11:54:22.494Z,-0.10
2019-01-22T11:58:30.790Z,0.00
2019-01-22T12:02:39.062Z,0.00
2019-01-22T12:06:47.376Z,0.00
2019-01-22T12:10:55.676Z,0.10
2019-01-22T12:15:05.275Z,0.10
2019-01-22T12:19:13.573Z,0.20
2019-01-22T12:23:21.843Z,0.20
2019-01-22T12:27:30.108Z,0.20
2019-01-22T12:31:38.405Z,0.20
2019-01-22T12:35:46.682Z,0.30
2019-01-22T12:39:55.020Z,0.30
2019-01-22T12:44:03.369Z,0.30
2019-01-22T12:48:11.695Z,0.40
2019-01-22T12:52:20.056Z,0.40
2019-01-22T12:56:28.356Z,0.40
2019-01-22T13:00:36.720Z,0.30
2019-01-22T13:04:45.019Z,0.20
2019-01-22T13:08:53.294Z,0.20
2019-01-22T13:13:01.596Z,0.10
2019-01-22T13:17:09.847Z,0.10
2019-01-22T13:21:18.273Z,0.10
2019-01-22T13:29:34.567Z,0.10
2019-01-22T13:33:42.829Z,0.10
2019-01-22T13:37:51.195Z,0.10
2019-01-22T13:41:59.532Z,0.10
2019-01-22T13:46:07.875Z,0.10
2019-01-22T13:50:18.035Z,0.10
2019-01-22T13:54:26.293Z,0.10
2019-01-22T13:58:34.614Z,0.20
2019-01-22T14:02:42.930Z,0.20
2019-01-22T14:06:51.170Z,0.20
2019-01-22T14:10:59.478Z,0.20
2019-01-22T14:15:10.365Z,0.20
2019-01-22T14:19:18.737Z,0.20
2019-01-22T14:23:27.014Z,0.10
2019-01-22T14:27:35.371Z,0.20
2019-01-22T14:31:43.630Z,0.20
2019-01-22T14:35:52.001Z,0.20
2019-01-22T14:40:00.275Z,0.20
2019-01-22T14:48:16.647Z,0.30
2019-01-22T14:52:25.044Z,0.30
2019-01-22T14:56:33.299Z,0.30
2019-01-22T15:00:41.589Z,0.30
2019-01-22T15:04:49.899Z,0.30
2019-01-22T15:08:58.219Z,0.30
2019-01-22T15:13:06.539Z,0.20
2019-01-22T15:17:14.889Z,0.20
2019-01-22T15:21:23.181Z,0.20
2019-01-22T15:25:31.597Z,0.20
2019-01-22T15:29:39.862Z,0.10
2019-01-22T15:33:48.193Z,0.10
2019-01-22T15:37:56.489Z,0.00
2019-01-22T15:42:04.792Z,0.00
2019-01-22T15:46:13.088Z,-0.10
2019-01-22T15:50:21.500Z,-0.10
2019-01-22T15:54:29.797Z,-0.20
2019-01-22T15:58:38.051Z,-0.20
2019-01-22T16:02:46.392Z,-0.20
2019-01-22T16:06:54.669Z,-0.30
2019-01-22T16:11:03.179Z,-0.30
2019-01-22T16:15:14.058Z,-0.30
2019-01-22T16:19:22.351Z,-0.40
2019-01-22T16:23:30.633Z,-0.40
2019-01-22T16:27:38.969Z,-0.40
2019-01-22T16:31:47.255Z,-0.40
2019-01-22T16:35:55.580Z,-0.50
2019-01-22T16:40:04.280Z,-0.40
2019-01-22T16:44:12.585Z,-0.50
2019-01-22T16:48:20.887Z,-0.50
2019-01-22T16:52:29.116Z,-0.50
2019-01-22T16:56:37.457Z,-0.50
2019-01-22T17:04:53.836Z,-0.60
2019-01-22T17:09:02.103Z,-0.60
2019-01-22T17:13:10.384Z,-0.60
2019-01-22T17:17:18.675Z,-0.60
2019-01-22T17:21:26.953Z,-0.60
2019-01-22T17:25:35.255Z,-0.60
2019-01-22T17:29:43.621Z,-0.60
2019-01-22T17:38:04.639Z,-0.60
2019-01-22T17:42:12.938Z,-0.60
2019-01-22T17:46:21.202Z,-0.60
2019-01-22T17:50:29.513Z,-0.60
2019-01-22T17:54:37.822Z,-0.60
2019-01-22T17:58:46.091Z,-0.60
2019-01-22T18:02:54.403Z,-0.70
2019-01-22T18:07:02.751Z,-0.70
2019-01-22T18:11:11.091Z,-0.70
2019-01-22T18:15:19.379Z,-0.60
2019-01-22T18:19:27.630Z,-0.60
2019-01-22T18:23:36.023Z,-0.60
2019-01-22T18:27:44.292Z,-0.60
2019-01-22T18:31:52.578Z,-0.70
2019-01-22T18:36:00.940Z,-0.60
2019-01-22T18:40:10.566Z,-0.60
2019-01-22T18:44:18.866Z,-0.60
2019-01-22T18:52:35.255Z,-0.50
2019-01-22T18:56:43.601Z,-0.60
2019-01-22T19:00:51.956Z,-0.60
2019-01-22T19:05:00.216Z,-0.60
2019-01-22T19:09:08.489Z,-0.70
2019-01-22T19:13:16.749Z,-0.60
2019-01-22T19:17:25.129Z,-0.70
2019-01-22T19:21:33.534Z,-0.70
2019-01-22T19:25:41.827Z,-0.70
2019-01-22T19:29:50.140Z,-0.70
2019-01-22T19:33:58.393Z,-0.70
2019-01-22T19:38:06.724Z,-0.70
2019-01-22T19:42:14.994Z,-0.80
2019-01-22T19:46:23.311Z,-0.70
2019-01-22T19:50:31.633Z,-0.80
2019-01-22T19:54:39.971Z,-0.80
2019-01-22T19:58:48.295Z,-0.80
2019-01-22T20:02:56.619Z,-0.80
2019-01-22T20:07:04.893Z,-0.80
2019-01-22T20:15:21.238Z,-0.80
2019-01-22T20:19:29.514Z,-0.80
2019-01-22T20:23:37.842Z,-0.80
2019-01-22T20:27:48.139Z,-0.80
2019-01-22T20:31:54.468Z,-0.80
2019-01-22T20:36:02.734Z,-0.80
2019-01-22T20:40:11.642Z,-0.80
2019-01-22T20:44:19.916Z,-0.80
2019-01-22T20:48:28.219Z,-0.90
2019-01-22T20:52:36.478Z,-0.90
2019-01-22T20:56:44.936Z,-0.90
2019-01-22T21:00:53.082Z,-0.90
2019-01-22T21:05:01.416Z,-0.90
2019-01-22T21:09:09.748Z,-0.80
2019-01-22T21:13:18.258Z,-0.80
2019-01-22T21:17:26.634Z,-0.90
2019-01-22T21:21:34.932Z,-0.90
2019-01-22T21:25:43.220Z,-0.90
2019-01-22T21:29:51.514Z,-0.90
2019-01-22T21:33:59.872Z,-0.90
2019-01-22T21:38:08.843Z,-0.90
2019-01-22T21:42:17.137Z,-0.90
2019-01-22T21:50:33.525Z,-0.90
2019-01-22T21:54:41.757Z,-0.90
2019-01-22T21:58:50.151Z,-0.90
2019-01-22T22:02:58.471Z,-0.90
2019-01-22T22:07:06.753Z,-0.90
2019-01-22T22:11:15.038Z,-0.90
2019-01-22T22:15:24.286Z,-0.90
2019-01-22T22:19:32.597Z,-0.90
2019-01-22T22:23:40.871Z,-0.90
2019-01-22T22:27:49.182Z,-0.90
2019-01-22T22:31:57.457Z,-0.90
2019-01-22T22:36:05.791Z,-0.90
2019-01-22T22:40:14.206Z,-0.90
2019-01-22T22:44:22.533Z,-0.90
2019-01-22T22:48:30.795Z,-0.90
2019-01-22T22:52:39.062Z,-0.90
2019-01-22T22:56:47.347Z,-0.90
2019-01-22T23:01:00.560Z,-0.80
2019-01-22T23:05:08.866Z,-0.90
2019-01-22T23:09:17.212Z,-0.80
2019-01-22T23:17:33.541Z,-0.80
2019-01-22T23:21:41.841Z,-0.80
2019-01-22T23:25:50.140Z,-0.80
2019-01-22T23:29:58.413Z,-0.80
2019-01-22T23:34:06.673Z,-0.80
2019-01-22T23:38:14.969Z,-0.80
2019-01-22T23:42:23.230Z,-0.80
2019-01-22T23:46:31.593Z,-0.80
2019-01-22T23:50:39.918Z,-0.80
2019-01-22T23:54:48.283Z,-0.80
2019-01-22T23:58:56.589Z,-0.80
